createdAt,value
2017-09-17T00:01:05.966Z,91.28
2017-09-17T00:03:33.536Z,91.73
2017-09-17T00:06:01.169Z,91.65
2017-09-17T00:08:28.766Z,92.01
2017-09-17T00:10:56.360Z,92.07
2017-09-17T00:13:23.948Z,92.01
2017-09-17T00:15:51.522Z,92.21
2017-09-17T00:18:19.099Z,92.35
2017-09-17T00:20:46.689Z,92.50
2017-09-17T00:23:14.446Z,92.51
2017-09-17T00:25:41.996Z,92.81
2017-09-17T00:28:10.105Z,92.81
2017-09-17T00:30:37.680Z,92.92
2017-09-17T00:33:07.093Z,93.06
2017-09-17T00:35:36.015Z,92.98
2017-09-17T00:38:04.110Z,92.92
2017-09-17T00:40:31.869Z,92.78
2017-09-17T00:42:59.438Z,92.34
2017-09-17T00:45:27.030Z,91.62
2017-09-17T00:47:55.001Z,91.95
2017-09-17T00:50:23.221Z,91.79
2017-09-17T00:52:50.801Z,91.87
2017-09-17T00:55:19.189Z,91.87
2017-09-17T00:57:46.774Z,91.59
2017-09-17T01:00:14.344Z,91.33
2017-09-17T01:02:41.937Z,91.49
2017-09-17T01:05:09.522Z,91.50
2017-09-17T01:07:37.113Z,91.90
2017-09-17T01:10:04.677Z,91.90
2017-09-17T01:12:32.276Z,91.43
2017-09-17T01:14:59.849Z,91.80
2017-09-17T01:17:29.217Z,92.22
2017-09-17T01:19:57.096Z,92.44
2017-09-17T01:22:24.660Z,91.94
2017-09-17T01:24:53.044Z,91.97
2017-09-17T01:27:20.625Z,91.82
2017-09-17T01:29:48.242Z,91.75
2017-09-17T01:32:15.801Z,91.67
2017-09-17T01:34:43.431Z,91.81
2017-09-17T01:37:11.006Z,91.43
2017-09-17T01:39:38.603Z,91.26
2017-09-17T01:42:06.241Z,91.26
2017-09-17T01:44:34.169Z,91.38
2017-09-17T01:47:02.123Z,91.69
2017-09-17T01:49:29.697Z,92.17
2017-09-17T01:51:58.002Z,92.25
2017-09-17T01:54:25.603Z,92.56
2017-09-17T01:56:53.384Z,92.48
2017-09-17T01:59:21.401Z,92.39
2017-09-17T02:01:49.185Z,92.73
2017-09-17T02:04:16.752Z,92.71
2017-09-17T02:06:44.685Z,92.80
2017-09-17T02:09:12.269Z,92.78
2017-09-17T02:11:39.833Z,92.85
2017-09-17T02:14:07.947Z,92.82
2017-09-17T02:16:35.524Z,92.84
2017-09-17T02:19:03.140Z,92.97
2017-09-17T02:21:30.726Z,93.04
2017-09-17T02:23:58.308Z,92.91
2017-09-17T02:26:25.904Z,93.02
2017-09-17T02:28:53.836Z,92.88
2017-09-17T02:31:21.416Z,93.01
2017-09-17T02:33:49.006Z,92.91
2017-09-17T02:36:16.611Z,92.91
2017-09-17T02:38:44.163Z,92.79
2017-09-17T02:41:11.748Z,92.64
2017-09-17T02:43:39.305Z,92.75
2017-09-17T02:46:06.895Z,92.58
2017-09-17T02:48:34.458Z,92.52
2017-09-17T02:51:02.409Z,92.58
2017-09-17T02:53:29.983Z,92.61
2017-09-17T02:55:59.371Z,92.54
2017-09-17T02:58:26.993Z,92.69
2017-09-17T03:00:55.761Z,92.83
2017-09-17T03:03:23.568Z,92.85
2017-09-17T03:05:51.705Z,92.81
2017-09-17T03:08:20.571Z,92.83
2017-09-17T03:10:48.172Z,92.76
2017-09-17T03:13:15.774Z,92.62
2017-09-17T03:15:43.423Z,92.36
2017-09-17T03:18:11.010Z,92.21
2017-09-17T03:20:38.573Z,92.60
2017-09-17T03:23:06.508Z,93.08
2017-09-17T03:25:34.088Z,93.44
2017-09-17T03:28:01.654Z,93.58
2017-09-17T03:30:29.249Z,93.50
2017-09-17T03:32:56.820Z,93.24
2017-09-17T03:35:24.362Z,93.41
2017-09-17T03:37:51.946Z,93.27
2017-09-17T03:40:19.551Z,93.14
2017-09-17T03:42:48.324Z,93.19
2017-09-17T03:45:16.189Z,93.38
2017-09-17T03:47:43.747Z,93.57
2017-09-17T03:50:11.311Z,93.54
2017-09-17T03:52:39.469Z,93.54
2017-09-17T03:55:07.248Z,93.57
2017-09-17T03:57:36.214Z,93.34
2017-09-17T04:00:03.814Z,93.20
2017-09-17T04:02:31.435Z,92.92
2017-09-17T04:04:59.060Z,93.13
2017-09-17T04:07:27.099Z,93.34
2017-09-17T04:09:57.345Z,93.41
2017-09-17T04:12:25.033Z,93.32
2017-09-17T04:14:52.666Z,92.96
2017-09-17T04:17:20.242Z,93.14
2017-09-17T04:19:47.814Z,93.09
2017-09-17T04:22:15.365Z,93.24
2017-09-17T04:24:42.992Z,93.40
2017-09-17T04:27:10.573Z,93.25
2017-09-17T04:29:38.193Z,93.01
2017-09-17T04:32:05.764Z,93.06
2017-09-17T04:34:34.359Z,93.27
2017-09-17T04:37:01.935Z,93.63
2017-09-17T04:39:30.479Z,93.96
2017-09-17T04:41:58.046Z,93.99
2017-09-17T04:44:25.606Z,94.12
2017-09-17T04:46:53.207Z,94.21
2017-09-17T04:49:20.748Z,94.15
2017-09-17T04:51:49.346Z,94.20
2017-09-17T04:54:16.907Z,94.26
2017-09-17T04:56:45.934Z,94.27
2017-09-17T04:59:13.909Z,94.36
2017-09-17T05:01:41.877Z,94.49
2017-09-17T05:04:09.449Z,94.41
2017-09-17T05:06:37.436Z,94.27
2017-09-17T05:09:04.991Z,94.41
2017-09-17T05:11:32.693Z,94.50
2017-09-17T05:14:01.677Z,94.50
2017-09-17T05:16:29.559Z,94.45
2017-09-17T05:18:57.161Z,94.73
2017-09-17T05:21:24.731Z,94.75
2017-09-17T05:23:57.384Z,94.77
2017-09-17T05:26:24.969Z,94.72
2017-09-17T05:28:52.558Z,94.82
2017-09-17T05:31:20.142Z,94.94
2017-09-17T05:33:48.056Z,94.87
2017-09-17T05:36:15.816Z,94.71
2017-09-17T05:38:43.393Z,94.77
2017-09-17T05:41:10.992Z,94.66
2017-09-17T05:43:38.551Z,94.83
2017-09-17T05:46:06.111Z,94.82
2017-09-17T05:48:33.668Z,94.57
2017-09-17T05:51:02.443Z,94.94
2017-09-17T05:53:30.025Z,95.06
2017-09-17T05:55:57.955Z,95.15
2017-09-17T05:58:25.502Z,95.15
2017-09-17T06:00:53.079Z,94.93
2017-09-17T06:03:20.660Z,95.22
2017-09-17T06:05:48.221Z,95.35
2017-09-17T06:08:15.845Z,95.33
2017-09-17T06:10:43.425Z,95.05
2017-09-17T06:13:11.024Z,94.87
2017-09-17T06:15:38.652Z,94.58
2017-09-17T06:18:06.590Z,94.52
2017-09-17T06:20:34.184Z,94.45
2017-09-17T06:23:03.060Z,94.54
2017-09-17T06:25:30.636Z,94.33
2017-09-17T06:28:00.088Z,93.98
2017-09-17T06:30:27.702Z,93.77
2017-09-17T06:32:55.239Z,93.82
2017-09-17T06:35:22.841Z,93.57
2017-09-17T06:37:50.431Z,93.40
2017-09-17T06:40:19.557Z,93.42
2017-09-17T06:42:47.137Z,93.29
2017-09-17T06:45:14.703Z,93.62
2017-09-17T06:47:42.353Z,93.67
2017-09-17T06:50:09.923Z,93.62
2017-09-17T06:52:37.533Z,93.24
2017-09-17T06:55:05.833Z,93.15
2017-09-17T06:57:34.109Z,92.90
2017-09-17T07:00:02.759Z,93.06
2017-09-17T07:02:30.786Z,93.35
2017-09-17T07:04:58.373Z,93.27
2017-09-17T07:07:25.965Z,93.20
2017-09-17T07:09:53.577Z,93.23
2017-09-17T07:12:22.675Z,93.20
2017-09-17T07:14:50.307Z,92.93
2017-09-17T07:17:17.902Z,92.52
2017-09-17T07:19:45.541Z,92.45
2017-09-17T07:22:13.152Z,92.52
2017-09-17T07:24:41.043Z,91.64
2017-09-17T07:27:08.651Z,91.81
2017-09-17T07:29:36.433Z,91.45
2017-09-17T07:32:04.098Z,92.39
2017-09-17T07:34:33.126Z,91.62
2017-09-17T07:37:02.448Z,91.06
2017-09-17T07:39:30.064Z,90.80
2017-09-17T07:41:57.640Z,91.34
2017-09-17T07:44:25.238Z,91.55
2017-09-17T07:46:52.833Z,91.68
2017-09-17T07:49:20.747Z,91.32
2017-09-17T07:51:48.376Z,89.90
2017-09-17T07:54:15.957Z,89.49
2017-09-17T07:56:43.574Z,89.94
2017-09-17T07:59:11.192Z,91.63
2017-09-17T08:01:39.046Z,91.32
2017-09-17T08:04:11.762Z,91.39
2017-09-17T08:06:39.962Z,91.05
2017-09-17T08:09:07.672Z,90.50
2017-09-17T08:11:35.660Z,90.06
2017-09-17T08:14:03.265Z,89.81
2017-09-17T08:16:30.996Z,89.66
2017-09-17T08:18:58.621Z,89.93
2017-09-17T08:21:26.323Z,89.91
2017-09-17T08:23:54.000Z,89.27
2017-09-17T08:26:21.736Z,89.07
2017-09-17T08:28:49.701Z,88.85
2017-09-17T08:31:17.266Z,89.32
2017-09-17T08:33:45.233Z,89.12
2017-09-17T08:36:13.178Z,88.59
2017-09-17T08:38:40.780Z,88.15
2017-09-17T08:41:08.358Z,87.54
2017-09-17T08:43:36.002Z,87.07
2017-09-17T08:46:05.086Z,86.94
2017-09-17T08:48:32.848Z,87.12
2017-09-17T08:51:02.341Z,86.72
2017-09-17T08:53:30.188Z,86.40
2017-09-17T08:56:00.826Z,86.62
2017-09-17T08:58:28.405Z,86.37
2017-09-17T09:00:56.823Z,85.76
2017-09-17T09:03:25.010Z,85.14
2017-09-17T09:05:52.633Z,85.01
2017-09-17T09:08:21.637Z,84.20
2017-09-17T09:10:49.245Z,84.65
2017-09-17T09:13:16.863Z,83.91
2017-09-17T09:15:46.911Z,82.80
2017-09-17T09:18:15.864Z,83.39
2017-09-17T09:20:45.439Z,83.05
2017-09-17T09:23:15.167Z,83.37
2017-09-17T09:25:44.098Z,82.34
2017-09-17T09:28:13.513Z,81.39
2017-09-17T09:30:41.215Z,81.20
2017-09-17T09:33:09.945Z,81.68
2017-09-17T09:35:37.701Z,81.33
2017-09-17T09:38:06.733Z,79.93
2017-09-17T09:40:35.726Z,80.31
2017-09-17T09:43:03.300Z,80.58
2017-09-17T09:45:30.942Z,79.39
2017-09-17T09:47:58.461Z,77.86
2017-09-17T09:50:27.781Z,78.34
2017-09-17T09:52:56.239Z,77.90
2017-09-17T09:55:24.926Z,79.58
2017-09-17T09:57:56.125Z,76.39
2017-09-17T10:00:24.262Z,76.10
2017-09-17T10:02:52.023Z,78.18
2017-09-17T10:05:20.664Z,76.34
2017-09-17T10:07:51.294Z,74.71
2017-09-17T10:10:20.142Z,74.56
2017-09-17T10:12:47.796Z,75.36
2017-09-17T10:15:15.504Z,74.50
2017-09-17T10:17:43.089Z,73.50
2017-09-17T10:20:10.703Z,72.07
2017-09-17T10:22:39.989Z,74.07
2017-09-17T10:25:07.634Z,74.98
2017-09-17T10:27:35.250Z,75.01
2017-09-17T10:30:02.880Z,76.47
2017-09-17T10:32:30.519Z,77.75
2017-09-17T10:34:58.279Z,76.71
2017-09-17T10:37:25.912Z,77.44
2017-09-17T10:39:53.771Z,77.95
2017-09-17T10:42:21.353Z,76.58
2017-09-17T10:44:48.926Z,73.75
2017-09-17T10:47:16.550Z,76.28
2017-09-17T10:49:44.145Z,74.31
2017-09-17T10:52:12.000Z,72.82
2017-09-17T10:54:39.599Z,72.58
2017-09-17T10:57:07.197Z,71.98
2017-09-17T10:59:34.802Z,72.06
2017-09-17T11:02:03.672Z,71.80
2017-09-17T11:04:31.283Z,72.28
2017-09-17T11:06:58.844Z,69.16
2017-09-17T11:09:26.456Z,70.78
2017-09-17T11:11:54.080Z,68.94
2017-09-17T11:14:21.660Z,67.74
2017-09-17T11:16:49.427Z,65.49
2017-09-17T11:19:17.015Z,65.71
2017-09-17T11:21:44.659Z,66.14
2017-09-17T11:24:12.278Z,67.76
2017-09-17T11:26:39.998Z,66.74
2017-09-17T11:29:07.755Z,67.38
2017-09-17T11:31:35.369Z,68.80
2017-09-17T11:34:02.980Z,66.35
2017-09-17T11:36:30.649Z,68.05
2017-09-17T11:38:58.251Z,69.02
2017-09-17T11:41:25.845Z,68.74
2017-09-17T11:43:53.465Z,66.76
2017-09-17T11:46:21.225Z,66.25
2017-09-17T11:48:48.822Z,65.92
2017-09-17T11:51:16.722Z,65.61
2017-09-17T11:53:44.333Z,67.61
2017-09-17T11:56:11.922Z,66.67
2017-09-17T11:58:40.141Z,68.46
2017-09-17T12:01:09.132Z,67.13
2017-09-17T12:03:37.829Z,68.58
2017-09-17T12:06:05.428Z,66.43
2017-09-17T12:08:33.448Z,68.63
2017-09-17T12:11:01.189Z,67.84
2017-09-17T12:13:29.313Z,69.12
2017-09-17T12:15:56.917Z,66.42
2017-09-17T12:18:24.462Z,65.28
2017-09-17T12:20:53.296Z,66.54
2017-09-17T12:23:20.901Z,67.30
2017-09-17T12:25:48.926Z,66.22
2017-09-17T12:28:16.570Z,68.28
2017-09-17T12:30:44.237Z,65.86
2017-09-17T12:33:12.434Z,65.13
2017-09-17T12:35:41.503Z,65.81
2017-09-17T12:38:09.413Z,65.59
2017-09-17T12:40:37.022Z,65.71
2017-09-17T12:43:04.730Z,64.13
2017-09-17T12:45:32.667Z,64.94
2017-09-17T12:48:00.298Z,65.40
2017-09-17T12:50:28.499Z,66.68
2017-09-17T12:52:56.157Z,64.29
2017-09-17T12:55:24.278Z,65.00
2017-09-17T12:57:51.851Z,65.22
2017-09-17T13:00:21.488Z,64.93
2017-09-17T13:02:51.284Z,65.23
2017-09-17T13:05:19.281Z,64.49
2017-09-17T13:07:48.651Z,66.03
2017-09-17T13:10:17.594Z,66.02
2017-09-17T13:12:46.580Z,66.03
2017-09-17T13:15:14.166Z,66.39
2017-09-17T13:17:41.904Z,67.17
2017-09-17T13:20:09.507Z,67.06
2017-09-17T13:22:38.254Z,67.21
2017-09-17T13:25:07.417Z,66.37
2017-09-17T13:27:36.894Z,66.25
2017-09-17T13:30:08.923Z,67.44
2017-09-17T13:32:38.125Z,66.86
2017-09-17T13:35:05.879Z,64.19
2017-09-17T13:37:33.651Z,67.00
2017-09-17T13:40:01.239Z,65.62
2017-09-17T13:42:31.226Z,65.31
2017-09-17T13:44:58.878Z,64.06
2017-09-17T13:47:29.088Z,63.83
2017-09-17T13:49:56.703Z,66.55
2017-09-17T13:52:25.304Z,64.62
2017-09-17T13:54:52.885Z,62.76
2017-09-17T13:57:21.833Z,63.77
2017-09-17T13:59:56.736Z,66.20
2017-09-17T14:02:29.493Z,64.81
2017-09-17T14:05:09.947Z,64.55
2017-09-17T14:07:43.900Z,63.78
2017-09-17T14:10:14.554Z,61.53
2017-09-17T14:12:43.510Z,62.25
2017-09-17T14:15:15.042Z,61.81
2017-09-17T14:17:42.694Z,62.85
2017-09-17T14:20:10.918Z,63.83
2017-09-17T14:22:40.137Z,64.70
2017-09-17T14:25:09.323Z,62.95
2017-09-17T14:27:38.505Z,64.34
2017-09-17T14:30:07.674Z,64.18
2017-09-17T14:32:35.301Z,63.74
2017-09-17T14:35:04.786Z,63.61
2017-09-17T14:37:34.334Z,64.62
2017-09-17T14:40:04.523Z,64.47
2017-09-17T14:42:33.423Z,63.56
2017-09-17T14:45:01.034Z,64.07
2017-09-17T14:47:28.679Z,63.66
2017-09-17T14:49:56.729Z,64.42
2017-09-17T14:52:24.318Z,64.77
2017-09-17T14:54:52.504Z,63.21
2017-09-17T14:57:22.799Z,62.13
2017-09-17T14:59:50.410Z,62.21
2017-09-17T15:02:18.598Z,62.99
2017-09-17T15:04:47.010Z,61.04
2017-09-17T15:07:14.607Z,62.93
2017-09-17T15:09:42.659Z,60.59
2017-09-17T15:12:10.228Z,61.22
2017-09-17T15:14:37.919Z,62.42
2017-09-17T15:17:05.533Z,63.41
2017-09-17T15:19:33.144Z,62.51
2017-09-17T15:22:00.707Z,66.59
2017-09-17T15:24:29.084Z,64.15
2017-09-17T15:26:56.840Z,64.04
2017-09-17T15:29:24.440Z,64.05
2017-09-17T15:31:52.046Z,64.67
2017-09-17T15:34:19.648Z,64.63
2017-09-17T15:36:47.251Z,63.74
2017-09-17T15:39:14.839Z,64.38
2017-09-17T15:41:42.473Z,63.24
2017-09-17T15:44:10.057Z,63.14
2017-09-17T15:46:37.884Z,62.91
2017-09-17T15:49:05.468Z,62.66
2017-09-17T15:51:34.023Z,62.73
2017-09-17T15:54:01.597Z,63.52
2017-09-17T15:56:29.214Z,65.11
2017-09-17T15:58:57.320Z,64.68
2017-09-17T16:01:24.939Z,65.24
2017-09-17T16:03:52.573Z,65.57
2017-09-17T16:06:20.162Z,65.33
2017-09-17T16:08:47.759Z,64.68
2017-09-17T16:11:15.338Z,66.26
2017-09-17T16:13:42.921Z,64.91
2017-09-17T16:18:45.686Z,66.63
2017-09-17T16:21:13.546Z,66.40
2017-09-17T16:23:42.680Z,67.29
2017-09-17T16:26:10.297Z,66.83
2017-09-17T16:28:37.897Z,67.30
2017-09-17T16:31:05.530Z,67.45
2017-09-17T16:33:33.131Z,68.88
2017-09-17T16:36:01.129Z,69.47
2017-09-17T16:38:29.207Z,69.73
2017-09-17T16:40:56.828Z,69.76
2017-09-17T16:43:24.545Z,70.05
2017-09-17T16:45:52.113Z,69.07
2017-09-17T16:48:20.008Z,68.86
2017-09-17T16:50:48.015Z,68.20
2017-09-17T16:53:15.861Z,71.68
2017-09-17T16:55:43.485Z,77.12
2017-09-17T16:58:11.168Z,78.43
2017-09-17T17:00:39.118Z,80.76
2017-09-17T17:03:07.129Z,80.25
2017-09-17T17:05:34.717Z,80.43
2017-09-17T17:08:02.481Z,80.93
2017-09-17T17:10:30.164Z,80.09
2017-09-17T17:12:58.312Z,80.94
2017-09-17T17:15:26.259Z,82.91
2017-09-17T17:17:54.271Z,82.29
2017-09-17T17:20:21.856Z,83.46
2017-09-17T17:22:49.605Z,82.54
2017-09-17T17:25:17.250Z,82.08
2017-09-17T17:27:44.816Z,83.13
2017-09-17T17:30:12.406Z,85.01
2017-09-17T17:32:39.964Z,85.89
2017-09-17T17:35:08.824Z,85.52
2017-09-17T17:37:36.391Z,85.52
2017-09-17T17:40:04.000Z,86.83
2017-09-17T17:42:31.618Z,86.38
2017-09-17T17:44:59.742Z,86.71
2017-09-17T17:47:27.709Z,87.32
2017-09-17T17:49:55.275Z,87.21
2017-09-17T17:52:22.870Z,86.95
2017-09-17T17:54:50.676Z,86.99
2017-09-17T17:57:18.262Z,87.04
2017-09-17T17:59:47.682Z,87.42
2017-09-17T18:02:15.655Z,87.35
2017-09-17T18:04:43.360Z,87.50
2017-09-17T18:07:10.979Z,87.59
2017-09-17T18:09:38.586Z,87.75
2017-09-17T18:12:06.351Z,87.57
2017-09-17T18:14:33.917Z,87.58
2017-09-17T18:17:01.567Z,87.68
2017-09-17T18:19:29.363Z,87.83
2017-09-17T18:21:57.007Z,87.97
2017-09-17T18:24:24.709Z,87.91
2017-09-17T18:26:52.694Z,88.09
2017-09-17T18:29:20.273Z,88.46
2017-09-17T18:31:47.863Z,88.84
2017-09-17T18:34:15.579Z,88.90
2017-09-17T18:36:43.780Z,89.52
2017-09-17T18:39:11.373Z,89.15
2017-09-17T18:41:38.983Z,89.24
2017-09-17T18:44:06.674Z,89.12
2017-09-17T18:46:34.396Z,89.31
2017-09-17T18:49:02.153Z,89.24
2017-09-17T18:51:30.713Z,88.81
2017-09-17T18:53:58.337Z,88.45
2017-09-17T18:56:25.919Z,88.60
2017-09-17T18:58:53.800Z,88.62
2017-09-17T19:01:21.386Z,88.30
2017-09-17T19:03:48.981Z,88.44
2017-09-17T19:06:16.642Z,88.60
2017-09-17T19:08:44.251Z,89.17
2017-09-17T19:11:11.846Z,89.42
2017-09-17T19:13:39.565Z,90.00
2017-09-17T19:16:07.166Z,90.36
2017-09-17T19:18:34.743Z,89.75
2017-09-17T19:21:03.734Z,89.59
2017-09-17T19:23:31.349Z,89.91
2017-09-17T19:25:58.914Z,90.31
2017-09-17T19:28:26.871Z,90.28
2017-09-17T19:30:54.488Z,90.20
2017-09-17T19:33:22.040Z,90.07
2017-09-17T19:35:49.660Z,90.09
2017-09-17T19:38:17.249Z,89.91
2017-09-17T19:40:45.363Z,89.40
2017-09-17T19:43:12.931Z,89.55
2017-09-17T19:45:40.618Z,89.31
2017-09-17T19:48:09.639Z,89.28
2017-09-17T19:50:37.178Z,89.37
2017-09-17T19:53:04.829Z,89.73
2017-09-17T19:55:32.436Z,89.77
2017-09-17T19:58:00.187Z,89.84
2017-09-17T20:00:27.725Z,90.14
2017-09-17T20:02:55.304Z,89.89
2017-09-17T20:05:22.956Z,89.52
2017-09-17T20:07:50.551Z,89.92
2017-09-17T20:10:18.322Z,90.29
2017-09-17T20:12:46.253Z,90.51
2017-09-17T20:15:13.818Z,90.32
2017-09-17T20:17:41.432Z,90.32
2017-09-17T20:20:09.087Z,90.32
2017-09-17T20:22:36.692Z,90.32
2017-09-17T20:25:04.670Z,90.28
2017-09-17T20:27:32.238Z,90.21
2017-09-17T20:29:59.767Z,90.28
2017-09-17T20:32:27.600Z,90.14
2017-09-17T20:34:55.203Z,90.09
2017-09-17T20:37:23.180Z,90.11
2017-09-17T20:39:50.786Z,90.16
2017-09-17T20:42:18.399Z,90.19
2017-09-17T20:44:46.014Z,90.06
2017-09-17T20:47:13.585Z,89.92
2017-09-17T20:49:41.591Z,89.95
2017-09-17T20:52:14.034Z,90.09
2017-09-17T20:54:41.956Z,90.52
2017-09-17T20:57:09.557Z,90.31
2017-09-17T20:59:37.125Z,90.54
2017-09-17T21:02:05.411Z,90.31
2017-09-17T21:04:33.025Z,90.58
2017-09-17T21:07:00.624Z,91.36
2017-09-17T21:09:28.236Z,91.36
2017-09-17T21:11:55.816Z,91.22
2017-09-17T21:14:23.991Z,91.15
2017-09-17T21:16:51.567Z,91.21
2017-09-17T21:19:19.116Z,90.67
2017-09-17T21:21:46.691Z,90.60
2017-09-17T21:24:14.278Z,90.60
2017-09-17T21:26:42.189Z,90.42
2017-09-17T21:29:10.045Z,90.40
2017-09-17T21:31:37.605Z,90.53
2017-09-17T21:34:05.169Z,90.01
2017-09-17T21:36:32.817Z,90.30
2017-09-17T21:39:01.512Z,90.27
2017-09-17T21:41:29.076Z,90.19
2017-09-17T21:43:57.035Z,90.20
2017-09-17T21:46:24.592Z,90.32
2017-09-17T21:48:52.172Z,90.36
2017-09-17T21:51:20.426Z,90.21
2017-09-17T21:53:48.009Z,90.49
2017-09-17T21:56:15.578Z,90.55
2017-09-17T21:58:43.143Z,90.48
2017-09-17T22:01:10.732Z,90.68
2017-09-17T22:03:38.294Z,90.69
2017-09-17T22:06:05.868Z,90.44
2017-09-17T22:08:33.449Z,90.42
2017-09-17T22:11:01.059Z,90.44
2017-09-17T22:13:28.609Z,90.29
2017-09-17T22:15:57.718Z,90.18
2017-09-17T22:18:25.322Z,90.15
2017-09-17T22:20:52.859Z,90.41
2017-09-17T22:23:21.833Z,90.79
2017-09-17T22:25:49.389Z,90.38
2017-09-17T22:28:16.973Z,90.73
2017-09-17T22:30:44.511Z,90.48
2017-09-17T22:33:12.415Z,90.78
2017-09-17T22:35:39.964Z,91.06
2017-09-17T22:38:07.545Z,91.19
2017-09-17T22:40:35.147Z,91.19
2017-09-17T22:43:02.703Z,91.21
2017-09-17T22:45:30.293Z,91.33
2017-09-17T22:47:57.861Z,91.51
2017-09-17T22:50:26.672Z,91.38
2017-09-17T22:52:55.408Z,91.07
2017-09-17T22:55:22.964Z,90.97
2017-09-17T22:57:50.664Z,90.68
2017-09-17T23:00:18.221Z,91.09
2017-09-17T23:02:46.097Z,91.10
2017-09-17T23:05:13.856Z,90.81
2017-09-17T23:07:41.423Z,90.99
2017-09-17T23:10:08.981Z,90.77
2017-09-17T23:12:36.537Z,90.57
2017-09-17T23:15:04.383Z,91.67
2017-09-17T23:17:33.134Z,90.79
2017-09-17T23:20:00.717Z,91.12
2017-09-17T23:22:28.304Z,91.78
2017-09-17T23:24:55.870Z,91.71
2017-09-17T23:27:23.749Z,91.77
2017-09-17T23:29:51.531Z,91.84
2017-09-17T23:32:19.086Z,91.45
2017-09-17T23:34:46.934Z,90.68
2017-09-17T23:37:14.475Z,91.73
2017-09-17T23:39:42.025Z,91.76
2017-09-17T23:42:09.630Z,91.99
2017-09-17T23:44:37.218Z,92.22
2017-09-17T23:47:05.152Z,92.06
2017-09-17T23:49:32.717Z,92.23
2017-09-17T23:52:06.558Z,91.99
2017-09-17T23:54:34.098Z,92.29
2017-09-17T23:57:01.641Z,92.34
2017-09-17T23:59:29.219Z,92.43
